Time;durP1;ratioP1;P1;durP2;ratioP2;P2;SDS_P1;SDS_P2;PMS_P1;PMS_P2;Temp;Humidity;BMP_temperature;BMP_pressure;BME280_temperature;BME280_humidity;BME280_pressure;Samples;Min_cycle;Max_cycle;Signal;HPM_P1;HPM_P2
2021/12/09 07:24:03;;;;;;;79.75;30.23;;;-0.20;99.90;;;;;;4936281;29;20098;-87
2021/12/09 07:26:41;;;;;;;74.22;30.08;;;-0.20;99.90;;;;;;4937949;29;20051;-87
2021/12/09 07:29:10;;;;;;;77.13;30.25;;;-0.20;99.90;;;;;;4938900;29;20114;-87
2021/12/09 07:36:16;;;;;;;74.25;28.35;;;-0.20;99.90;;;;;;4897415;29;20174;-87
2021/12/09 07:39:00;;;;;;;79.85;32.17;;;-0.20;99.90;;;;;;4934835;29;20048;-87
2021/12/09 07:41:28;;;;;;;84.88;30.33;;;-0.70;99.90;;;;;;4935857;29;20063;-87
2021/12/09 07:44:05;;;;;;;65.63;26.05;;;-0.30;99.90;;;;;;4920919;29;20094;-87
2021/12/09 07:46:38;;;;;;;73.00;31.13;;;0.00;99.90;;;;;;4921246;29;20070;-87
2021/12/09 07:49:24;;;;;;;68.47;29.20;;;0.70;99.90;;;;;;4918667;29;20406;-87
2021/12/09 07:52:03;;;;;;;74.70;30.52;;;-0.10;99.90;;;;;;4932994;29;20199;-87
2021/12/09 08:01:38;;;;;;;78.93;31.00;;;-0.10;99.90;;;;;;4914642;29;19923;-86
2021/12/09 08:04:05;;;;;;;84.00;32.58;;;-0.10;99.90;;;;;;4923439;29;20058;-86
2021/12/09 08:06:32;;;;;;;86.13;31.63;;;-0.10;99.90;;;;;;4931015;29;20087;-86
2021/12/09 08:08:58;;;;;;;78.30;29.50;;;-0.20;99.90;;;;;;4900301;29;20047;-87
2021/12/09 08:11:29;;;;;;;91.75;32.25;;;-0.70;99.90;;;;;;4906442;29;20055;-86
2021/12/09 08:13:58;;;;;;;84.53;32.08;;;-0.30;99.90;;;;;;4922205;29;20635;-86
2021/12/09 08:16:24;;;;;;;81.80;31.13;;;-0.10;99.90;;;;;;4934173;29;20059;-86
2021/12/09 08:18:56;;;;;;;98.30;31.52;;;0.60;99.90;;;;;;4933570;29;20070;-86
2021/12/09 08:21:25;;;;;;;81.63;30.52;;;-0.40;99.90;;;;;;4943733;29;20051;-86
2021/12/09 08:23:52;;;;;;;83.90;28.67;;;-0.40;99.90;;;;;;4933249;29;20074;-86
2021/12/09 08:26:19;;;;;;;81.57;29.58;;;-0.80;99.90;;;;;;4917406;29;20067;-86
2021/12/09 08:28:45;;;;;;;86.53;33.70;;;-0.10;99.90;;;;;;4950729;29;20043;-86
2021/12/09 08:31:14;;;;;;;74.25;29.67;;;-0.20;99.90;;;;;;4917796;29;20054;-86
2021/12/09 08:33:40;;;;;;;72.38;29.45;;;0.10;99.90;;;;;;4933154;29;20183;-86
2021/12/09 08:36:05;;;;;;;62.95;26.50;;;0.20;99.90;;;;;;4933675;29;20126;-86
2021/12/09 08:38:31;;;;;;;54.05;22.58;;;0.40;99.90;;;;;;4933331;29;20063;-86
2021/12/09 08:40:58;;;;;;;61.60;22.25;;;0.50;99.90;;;;;;4933796;29;20057;-86
2021/12/09 08:43:26;;;;;;;78.40;31.05;;;0.70;99.90;;;;;;4948247;28;20695;-86
2021/12/09 08:45:53;;;;;;;68.80;29.77;;;0.30;99.90;;;;;;4933060;29;20090;-86
2021/12/09 08:48:21;;;;;;;65.90;28.88;;;1.00;99.90;;;;;;4916724;29;20066;-87
2021/12/09 08:50:48;;;;;;;70.55;28.63;;;0.70;99.90;;;;;;4932435;29;20071;-86
2021/12/09 08:53:18;;;;;;;62.85;27.55;;;0.40;99.90;;;;;;4948078;29;20051;-86
2021/12/09 08:55:47;;;;;;;69.00;28.05;;;0.80;99.90;;;;;;4932613;29;20047;-86
2021/12/09 08:58:14;;;;;;;71.22;29.70;;;0.30;99.90;;;;;;4935274;29;20486;-86
2021/12/09 09:00:41;;;;;;;62.35;24.13;;;0.30;99.90;;;;;;4936004;29;20062;-86
2021/12/09 09:03:07;;;;;;;62.13;27.35;;;1.00;99.90;;;;;;4936185;28;20051;-86
2021/12/09 09:05:35;;;;;;;46.90;22.73;;;0.80;99.90;;;;;;4954200;28;20529;-86
2021/12/09 09:08:03;;;;;;;55.13;23.40;;;0.50;99.90;;;;;;4941010;28;20053;-86
2021/12/09 09:10:39;;;;;;;64.15;25.23;;;1.10;99.90;;;;;;4957663;28;20085;-86
2021/12/09 09:13:06;;;;;;;58.92;25.33;;;1.20;99.90;;;;;;4937829;29;20047;-86
2021/12/09 09:15:35;;;;;;;55.33;23.85;;;0.80;99.90;;;;;;4943686;28;20178;-85
2021/12/09 09:18:02;;;;;;;55.25;22.08;;;0.90;99.90;;;;;;4952992;29;20106;-86
2021/12/09 09:20:30;;;;;;;56.65;24.27;;;1.40;99.90;;;;;;4937184;28;20142;-86
2021/12/09 09:22:57;;;;;;;56.80;24.77;;;1.40;99.90;;;;;;4968355;28;20047;-87
2021/12/09 09:25:29;;;;;;;;;;;0.90;99.90;;;;;;4927477;29;20074;-86
2021/12/09 09:28:00;;;;;;;50.72;20.17;;;1.80;99.90;;;;;;4919538;29;19989;-87
2021/12/09 09:30:38;;;;;;;51.85;22.70;;;1.20;99.90;;;;;;4920200;29;20063;-86
2021/12/09 09:33:11;;;;;;;54.13;22.77;;;1.30;99.90;;;;;;4924068;28;20074;-86
2021/12/09 09:35:49;;;;;;;46.08;20.98;;;1.00;99.90;;;;;;4936793;28;20059;-86
2021/12/09 09:38:17;;;;;;;50.42;20.00;;;1.40;99.90;;;;;;4936549;28;20053;-86
2021/12/09 09:40:51;;;;;;;38.90;17.45;;;1.20;99.90;;;;;;4938916;28;20553;-86
2021/12/09 09:46:19;;;;;;;43.30;17.73;;;1.60;99.90;;;;;;4950225;28;20521;-86
2021/12/09 09:48:46;;;;;;;39.10;16.77;;;1.30;99.90;;;;;;4937624;28;20055;-85
2021/12/09 09:51:13;;;;;;;36.58;17.58;;;1.40;99.90;;;;;;4937463;28;20417;-86
2021/12/09 09:53:45;;;;;;;38.60;15.30;;;2.20;99.90;;;;;;4937161;28;20134;-85
2021/12/09 09:56:18;;;;;;;33.58;15.48;;;1.60;99.90;;;;;;4937581;28;20051;-85
2021/12/09 09:58:51;;;;;;;32.30;15.82;;;1.20;99.90;;;;;;4937436;28;20063;-85
2021/12/09 10:01:27;;;;;;;30.30;15.75;;;1.80;99.90;;;;;;4934551;29;20133;-85
2021/12/09 10:04:09;;;;;;;30.83;14.18;;;1.30;99.90;;;;;;4921433;28;20540;-85
2021/12/09 10:06:44;;;;;;;44.58;17.15;;;1.80;99.90;;;;;;4920746;28;20514;-85
2021/12/09 10:09:18;;;;;;;24.58;12.15;;;1.70;99.90;;;;;;4938493;28;20067;-85
2021/12/09 10:11:44;;;;;;;31.38;14.02;;;1.80;99.90;;;;;;4928117;29;20224;-86
2021/12/09 10:14:23;;;;;;;24.90;12.68;;;1.90;99.90;;;;;;4928146;29;20043;-85
2021/12/09 10:17:19;;;;;;;27.38;13.65;;;1.80;99.90;;;;;;4928960;29;20058;-86
2021/12/09 10:20:02;;;;;;;27.50;11.63;;;2.00;99.90;;;;;;4929992;29;20063;-86
2021/12/09 10:22:34;;;;;;;20.73;11.68;;;2.20;99.90;;;;;;4949979;28;20198;-87
2021/12/09 10:25:03;;;;;;;27.48;11.55;;;2.00;99.90;;;;;;4934504;29;20058;-87
2021/12/09 10:28:11;;;;;;;23.13;10.93;;;2.10;99.90;;;;;;4950896;28;20515;-87
2021/12/09 10:31:35;;;;;;;21.10;8.15;;;2.10;99.90;;;;;;4943680;29;20059;-87
2021/12/09 10:34:14;;;;;;;20.92;9.57;;;2.00;99.90;;;;;;4901669;29;20063;-87
2021/12/09 10:36:53;;;;;;;21.02;10.60;;;2.30;99.90;;;;;;4922588;29;20059;-87
2021/12/09 10:39:33;;;;;;;20.52;9.05;;;2.40;99.90;;;;;;4925192;29;20051;-87
2021/12/09 10:42:22;;;;;;;21.63;8.60;;;2.40;99.90;;;;;;4921182;29;20085;-86
2021/12/09 21:37:57;;;;;;;;;;;;;;;;;;;;;
2021/12/09 21:41:34;;;;;;;;;;;;;;;;;;;;;
2021/12/09 21:44:08;;;;;;;59.88;30.60;;;4.30;99.90;;;;;;4924689;28;20084;-86
2021/12/09 21:50:39;;;;;;;60.25;30.38;;;4.40;99.90;;;;;;4989975;28;20062;-87
2021/12/09 21:53:42;;;;;;;66.78;31.00;;;4.40;99.90;;;;;;4979384;28;20077;-86
2021/12/09 21:57:10;;;;;;;59.58;28.48;;;4.40;99.90;;;;;;4993529;28;20078;-87
2021/12/09 22:01:00;;;;;;;;;;;;;;;;;;;;;
2021/12/09 22:07:52;;;;;;;72.03;30.05;;;4.20;99.90;;;;;;4941941;29;20048;-86
2021/12/09 22:15:30;;;;;;;;;;;;;;;;;;;;;
2021/12/09 22:49:47;;;;;;;65.28;29.95;;;4.20;99.90;;;;;;4851557;29;20065;-88
2021/12/09 22:53:34;;;;;;;57.83;29.60;;;3.80;99.90;;;;;;4747399;30;20056;-87
